createdAt,value
2022-09-11T00:00:56.348Z,100089.03
2022-09-11T00:03:24.422Z,100085.63
2022-09-11T00:05:50.683Z,100082.97
2022-09-11T00:08:16.970Z,100086.25
2022-09-11T00:10:43.232Z,100080.97
2022-09-11T00:13:09.491Z,100073.25
2022-09-11T00:15:35.766Z,100076.44
2022-09-11T00:18:02.249Z,100073.47
2022-09-11T00:20:28.750Z,100074.59
2022-09-11T00:22:55.020Z,100081.69
2022-09-11T00:25:21.280Z,100082.56
2022-09-11T00:27:48.649Z,100078.00
2022-09-11T00:30:14.912Z,100079.44
2022-09-11T00:32:41.196Z,100083.13
2022-09-11T00:35:07.580Z,100069.75
2022-09-11T00:37:33.848Z,100079.59
2022-09-11T00:40:00.255Z,100078.19
2022-09-11T00:42:26.568Z,100084.16
2022-09-11T00:44:52.833Z,100077.78
2022-09-11T00:47:19.098Z,100078.69
2022-09-11T00:49:45.506Z,100087.25
2022-09-11T00:52:11.785Z,100078.94
2022-09-11T00:54:38.049Z,100078.50
2022-09-11T00:57:04.349Z,100079.50
2022-09-11T00:59:31.038Z,100082.06
2022-09-11T01:01:57.380Z,100092.75
2022-09-11T01:04:23.683Z,100084.03
2022-09-11T01:06:50.006Z,100076.09
2022-09-11T01:09:16.281Z,100066.13
2022-09-11T01:11:42.549Z,100069.56
2022-09-11T01:14:08.803Z,100064.31
2022-09-11T01:16:35.159Z,100065.28
2022-09-11T01:19:01.443Z,100069.00
2022-09-11T01:21:32.474Z,100071.88
2022-09-11T01:24:00.610Z,100067.00
2022-09-11T01:26:27.427Z,100067.19
2022-09-11T01:28:53.687Z,100064.88
2022-09-11T01:31:19.985Z,100064.00
2022-09-11T01:33:46.248Z,100066.72
2022-09-11T01:36:12.503Z,100063.59
2022-09-11T01:38:39.078Z,100066.28
2022-09-11T01:41:08.044Z,100071.56
2022-09-11T01:43:34.308Z,100064.47
2022-09-11T01:46:00.618Z,100069.16
2022-09-11T01:48:26.918Z,100076.13
2022-09-11T01:50:54.046Z,100068.84
2022-09-11T01:53:21.954Z,100073.81
2022-09-11T01:55:49.056Z,100074.00
2022-09-11T01:58:15.397Z,100070.16
2022-09-11T02:00:41.683Z,100075.56
2022-09-11T02:03:08.148Z,100082.94
2022-09-11T02:05:34.414Z,100068.13
2022-09-11T02:08:00.678Z,100076.13
2022-09-11T02:10:26.948Z,100071.28
2022-09-11T02:12:53.203Z,100074.72
2022-09-11T02:15:19.550Z,100071.28
2022-09-11T02:17:46.272Z,100073.41
2022-09-11T02:20:12.523Z,100063.59
2022-09-11T02:22:38.785Z,100066.00
2022-09-11T02:25:05.499Z,100072.28
2022-09-11T02:27:33.239Z,100072.56
2022-09-11T02:29:59.496Z,100061.88
2022-09-11T02:32:26.762Z,100064.16
2022-09-11T02:34:53.168Z,100073.81
2022-09-11T02:37:19.425Z,100074.72
2022-09-11T02:39:45.745Z,100075.56
2022-09-11T02:42:12.407Z,100082.09
2022-09-11T02:44:38.689Z,100069.56
2022-09-11T02:47:05.544Z,100070.59
2022-09-11T02:49:31.804Z,100070.72
2022-09-11T02:51:59.189Z,100075.56
2022-09-11T02:54:25.460Z,100067.84
2022-09-11T02:56:51.733Z,100067.00
2022-09-11T02:59:19.029Z,100072.72
2022-09-11T03:01:45.343Z,100068.56
2022-09-11T03:04:11.716Z,100072.28
2022-09-11T03:06:38.456Z,100073.56
2022-09-11T03:09:04.722Z,100074.53
2022-09-11T03:11:32.698Z,100087.31
2022-09-11T03:13:58.866Z,100078.19
2022-09-11T03:16:25.609Z,100081.47
2022-09-11T03:18:51.939Z,100075.06
2022-09-11T03:21:18.849Z,100086.00
2022-09-11T03:23:45.121Z,100086.31
2022-09-11T03:26:11.384Z,100084.47
2022-09-11T03:28:37.664Z,100080.91
2022-09-11T03:31:04.977Z,100087.44
2022-09-11T03:33:31.256Z,100086.59
2022-09-11T03:35:57.529Z,100092.53
2022-09-11T03:38:23.805Z,100090.53
2022-09-11T03:40:50.279Z,100086.84
2022-09-11T03:43:16.713Z,100083.56
2022-09-11T03:45:43.093Z,100087.94
2022-09-11T03:48:10.008Z,100090.34
2022-09-11T03:50:36.262Z,100091.66
2022-09-11T03:53:02.775Z,100100.44
2022-09-11T03:55:29.048Z,100106.00
2022-09-11T03:57:55.335Z,100100.31
2022-09-11T04:00:22.125Z,100100.59
2022-09-11T04:02:48.583Z,100107.97
2022-09-11T04:05:14.832Z,100103.97
2022-09-11T04:07:41.439Z,100098.84
2022-09-11T04:10:07.700Z,100105.50
2022-09-11T04:12:33.967Z,100109.47
2022-09-11T04:15:00.232Z,100107.94
2022-09-11T04:17:26.501Z,100114.66
2022-09-11T04:19:52.760Z,100110.72
2022-09-11T04:22:19.041Z,100115.94
2022-09-11T04:24:45.295Z,100124.03
2022-09-11T04:27:12.856Z,100121.34
2022-09-11T04:29:39.121Z,100116.94
2022-09-11T04:32:05.389Z,100125.03
2022-09-11T04:34:31.639Z,100123.94
2022-09-11T04:36:57.932Z,100132.47
2022-09-11T04:39:24.221Z,100125.84
2022-09-11T04:41:50.486Z,100133.06
2022-09-11T04:44:16.739Z,100121.03
2022-09-11T04:46:42.997Z,100124.13
2022-09-11T04:49:09.249Z,100135.09
2022-09-11T04:51:35.554Z,100128.47
2022-09-11T04:54:01.900Z,100125.44
2022-09-11T04:56:29.154Z,100125.59
2022-09-11T04:58:55.423Z,100123.16
2022-09-11T05:01:21.740Z,100117.03
2022-09-11T05:03:48.137Z,100130.84
2022-09-11T05:06:16.333Z,100126.75
2022-09-11T05:08:42.597Z,100127.78
2022-09-11T05:11:09.480Z,100132.06
2022-09-11T05:13:36.676Z,100137.16
2022-09-11T05:16:03.169Z,100140.03
2022-09-11T05:18:29.483Z,100131.53
2022-09-11T05:20:56.011Z,100140.06
2022-09-11T05:23:22.278Z,100154.03
2022-09-11T05:25:48.995Z,100149.78
2022-09-11T05:28:15.852Z,100145.34
2022-09-11T05:30:42.456Z,100151.22
2022-09-11T05:33:08.893Z,100152.19
2022-09-11T05:35:35.793Z,100156.75
2022-09-11T05:38:02.067Z,100158.47
2022-09-11T05:40:28.343Z,100165.44
2022-09-11T05:42:54.618Z,100167.72
2022-09-11T05:45:22.207Z,100173.56
2022-09-11T05:47:48.475Z,100171.75
2022-09-11T05:50:14.766Z,100176.28
2022-09-11T05:52:41.019Z,100180.28
2022-09-11T05:55:07.286Z,100182.69
2022-09-11T05:57:33.550Z,100190.25
2022-09-11T06:00:00.717Z,100197.63
2022-09-11T06:02:27.110Z,100193.22
2022-09-11T06:04:53.420Z,100194.78
2022-09-11T06:07:19.679Z,100206.47
2022-09-11T06:09:45.930Z,100197.03
2022-09-11T06:12:12.379Z,100204.88
2022-09-11T06:14:38.646Z,100207.47
2022-09-11T06:17:06.384Z,100215.28
2022-09-11T06:19:32.646Z,100210.00
2022-09-11T06:21:58.900Z,100214.13
2022-09-11T06:24:25.348Z,100214.41
2022-09-11T06:26:51.611Z,100216.38
2022-09-11T06:29:17.878Z,100215.47
2022-09-11T06:31:44.350Z,100207.75
2022-09-11T06:34:10.617Z,100214.66
2022-09-11T06:36:37.119Z,100224.59
2022-09-11T06:39:03.393Z,100221.16
2022-09-11T06:41:29.703Z,100226.88
2022-09-11T06:43:55.958Z,100229.63
2022-09-11T06:46:24.802Z,100228.06
2022-09-11T06:48:51.092Z,100222.31
2022-09-11T06:51:17.451Z,100234.69
2022-09-11T06:53:43.833Z,100227.19
2022-09-11T06:56:10.215Z,100237.41
2022-09-11T06:58:36.484Z,100238.25
2022-09-11T07:01:03.467Z,100234.44
2022-09-11T07:03:29.768Z,100238.81
2022-09-11T07:05:56.041Z,100229.28
2022-09-11T07:08:24.970Z,100237.94
2022-09-11T07:10:51.554Z,100240.25
2022-09-11T07:13:17.833Z,100235.81
2022-09-11T07:15:44.224Z,100243.34
2022-09-11T07:18:11.380Z,100237.63
2022-09-11T07:20:38.209Z,100242.97
2022-09-11T07:23:04.480Z,100242.81
2022-09-11T07:25:30.757Z,100251.66
2022-09-11T07:27:57.020Z,100249.16
2022-09-11T07:30:23.271Z,100253.34
2022-09-11T07:32:49.818Z,100261.19
2022-09-11T07:35:21.310Z,100251.03
2022-09-11T07:37:50.734Z,100253.88
2022-09-11T07:40:17.393Z,100253.38
2022-09-11T07:42:43.717Z,100251.81
2022-09-11T07:45:10.228Z,100255.31
2022-09-11T07:47:36.512Z,100259.50
2022-09-11T07:50:02.781Z,100253.44
2022-09-11T07:52:29.054Z,100258.16
2022-09-11T07:54:55.307Z,100262.94
2022-09-11T07:57:24.084Z,100256.72
2022-09-11T07:59:50.348Z,100255.25
2022-09-11T08:02:17.997Z,100256.59
2022-09-11T08:04:44.381Z,100255.94
2022-09-11T08:07:10.656Z,100261.88
2022-09-11T08:09:36.922Z,100258.25
2022-09-11T08:12:03.209Z,100263.44
2022-09-11T08:14:29.676Z,100265.56
2022-09-11T08:16:58.691Z,100273.69
2022-09-11T08:19:24.942Z,100277.41
2022-09-11T08:21:51.245Z,100289.34
2022-09-11T08:24:17.559Z,100282.84
2022-09-11T08:26:48.606Z,100291.25
2022-09-11T08:29:15.321Z,100290.19
2022-09-11T08:31:41.785Z,100294.56
2022-09-11T08:34:08.043Z,100300.19
2022-09-11T08:36:34.321Z,100295.13
2022-09-11T08:39:02.839Z,100296.56
2022-09-11T08:41:29.119Z,100305.44
2022-09-11T08:43:56.035Z,100301.91
2022-09-11T08:46:22.312Z,100300.84
2022-09-11T08:48:48.566Z,100305.00
2022-09-11T08:51:14.836Z,100314.47
2022-09-11T08:53:41.137Z,100314.19
2022-09-11T08:56:07.446Z,100320.38
2022-09-11T08:58:33.691Z,100319.19
2022-09-11T09:01:00.034Z,100316.94
2022-09-11T09:03:26.417Z,100314.34
2022-09-11T09:05:52.664Z,100319.56
2022-09-11T09:08:18.982Z,100323.72
2022-09-11T09:10:45.240Z,100331.56
2022-09-11T09:13:11.544Z,100321.19
2022-09-11T09:15:38.375Z,100335.78
2022-09-11T09:18:04.702Z,100331.28
2022-09-11T09:20:30.961Z,100325.44
2022-09-11T09:22:57.260Z,100328.09
2022-09-11T09:25:23.608Z,100327.25
2022-09-11T09:27:49.920Z,100331.22
2022-09-11T09:30:16.209Z,100333.94
2022-09-11T09:32:42.545Z,100342.88
2022-09-11T09:35:08.812Z,100338.13
2022-09-11T09:37:35.140Z,100340.28
2022-09-11T09:40:01.475Z,100341.72
2022-09-11T09:42:28.249Z,100346.94
2022-09-11T09:44:54.521Z,100353.31
2022-09-11T09:47:20.905Z,100347.94
2022-09-11T09:49:47.172Z,100349.25
2022-09-11T09:52:13.448Z,100344.94
2022-09-11T09:54:39.704Z,100350.91
2022-09-11T09:57:05.976Z,100352.53
2022-09-11T09:59:32.256Z,100354.09
2022-09-11T10:01:58.608Z,100352.91
2022-09-11T10:04:25.173Z,100352.72
2022-09-11T10:06:52.045Z,100359.53
2022-09-11T10:09:18.386Z,100363.63
2022-09-11T10:11:46.623Z,100371.84
2022-09-11T10:14:24.450Z,100371.81
2022-09-11T10:16:59.132Z,100364.56
2022-09-11T10:19:25.875Z,100372.50
2022-09-11T10:21:52.123Z,100376.00
2022-09-11T10:24:18.394Z,100375.81
2022-09-11T10:26:46.033Z,100382.97
2022-09-11T10:29:12.353Z,100380.38
2022-09-11T10:31:38.617Z,100385.22
2022-09-11T10:34:05.923Z,100387.75
2022-09-11T10:36:32.778Z,100394.84
2022-09-11T10:38:59.061Z,100389.81
2022-09-11T10:41:26.093Z,100393.53
2022-09-11T10:43:52.319Z,100406.41
2022-09-11T10:46:18.573Z,100403.84
2022-09-11T10:48:44.841Z,100406.09
2022-09-11T10:51:11.733Z,100406.25
2022-09-11T10:53:38.057Z,100410.34
2022-09-11T10:56:05.958Z,100410.88
2022-09-11T10:58:32.719Z,100409.69
2022-09-11T11:00:58.985Z,100414.53
2022-09-11T11:03:25.266Z,100417.47
2022-09-11T11:05:51.520Z,100410.66
2022-09-11T11:08:17.791Z,100413.50
2022-09-11T11:10:44.524Z,100420.88
2022-09-11T11:13:14.461Z,100428.63
2022-09-11T11:15:40.743Z,100422.78
2022-09-11T11:18:07.326Z,100421.50
2022-09-11T11:20:33.583Z,100427.50
2022-09-11T11:22:59.861Z,100430.47
2022-09-11T11:25:27.305Z,100436.91
2022-09-11T11:27:53.583Z,100440.47
2022-09-11T11:30:19.849Z,100443.31
2022-09-11T11:32:46.765Z,100445.28
2022-09-11T11:35:13.035Z,100446.88
2022-09-11T11:37:39.304Z,100445.06
2022-09-11T11:40:06.003Z,100446.31
2022-09-11T11:42:32.279Z,100459.44
2022-09-11T11:44:58.561Z,100453.47
2022-09-11T11:47:25.243Z,100458.97
2022-09-11T11:49:51.553Z,100461.00
2022-09-11T11:52:17.839Z,100467.97
2022-09-11T11:54:44.650Z,100468.56
2022-09-11T11:57:10.919Z,100470.78
2022-09-11T11:59:37.178Z,100471.25
2022-09-11T12:02:03.668Z,100475.41
2022-09-11T12:04:30.332Z,100481.38
2022-09-11T12:06:56.595Z,100479.81
2022-09-11T12:09:22.873Z,100476.97
2022-09-11T12:11:49.133Z,100481.81
2022-09-11T12:14:15.409Z,100484.06
2022-09-11T12:16:43.371Z,100489.97
2022-09-11T12:19:09.806Z,100487.50
2022-09-11T12:21:36.063Z,100490.09
2022-09-11T12:24:02.591Z,100480.22
2022-09-11T12:26:29.413Z,100488.38
2022-09-11T12:28:55.693Z,100484.53
2022-09-11T12:31:21.994Z,100483.19
2022-09-11T12:33:48.352Z,100482.38
2022-09-11T12:36:16.062Z,100484.47
2022-09-11T12:38:44.882Z,100483.91
2022-09-11T12:41:12.978Z,100483.94
2022-09-11T12:43:40.249Z,100477.81
2022-09-11T12:46:06.530Z,100489.22
2022-09-11T12:48:33.264Z,100484.31
2022-09-11T12:50:59.983Z,100480.09
2022-09-11T12:53:26.281Z,100485.06
2022-09-11T12:55:52.539Z,100478.50
2022-09-11T12:58:18.817Z,100479.41
2022-09-11T13:00:45.961Z,100479.50
2022-09-11T13:03:12.536Z,100478.66
2022-09-11T13:05:38.824Z,100488.47
2022-09-11T13:08:05.080Z,100484.72
2022-09-11T13:10:33.387Z,100477.34
2022-09-11T13:12:59.747Z,100475.38
2022-09-11T13:15:26.034Z,100470.81
2022-09-11T13:17:52.323Z,100470.50
2022-09-11T13:20:18.624Z,100470.41
2022-09-11T13:22:48.647Z,100472.41
2022-09-11T13:25:15.117Z,100468.94
2022-09-11T13:27:41.500Z,100460.75
2022-09-11T13:30:07.758Z,100465.09
2022-09-11T13:32:34.041Z,100467.88
2022-09-11T13:35:01.855Z,100467.56
2022-09-11T13:37:29.029Z,100460.69
2022-09-11T13:39:55.324Z,100465.09
2022-09-11T13:42:23.099Z,100459.22
2022-09-11T13:44:49.516Z,100452.94
2022-09-11T13:47:17.627Z,100459.13
2022-09-11T13:49:44.003Z,100459.69
2022-09-11T13:52:10.264Z,100455.47
2022-09-11T13:54:38.129Z,100453.31
2022-09-11T13:57:04.417Z,100448.72
2022-09-11T13:59:30.689Z,100448.38
2022-09-11T14:01:56.996Z,100443.13
2022-09-11T14:04:23.267Z,100437.94
2022-09-11T14:06:49.536Z,100440.00
2022-09-11T14:09:15.834Z,100442.28
2022-09-11T14:11:42.097Z,100436.72
2022-09-11T14:14:08.358Z,100438.28
2022-09-11T14:16:34.618Z,100436.44
2022-09-11T14:19:00.877Z,100435.56
2022-09-11T14:21:27.127Z,100437.47
2022-09-11T14:23:53.370Z,100430.38
2022-09-11T14:26:19.629Z,100431.91
2022-09-11T14:28:45.884Z,100422.03
2022-09-11T14:31:12.323Z,100422.50
2022-09-11T14:33:38.631Z,100419.13
2022-09-11T14:36:07.783Z,100426.84
2022-09-11T14:38:35.185Z,100421.44
2022-09-11T14:41:01.431Z,100419.78
2022-09-11T14:43:27.719Z,100419.59
2022-09-11T14:45:54.652Z,100422.78
2022-09-11T14:48:20.874Z,100415.47
2022-09-11T14:50:47.129Z,100427.56
2022-09-11T14:53:14.869Z,100414.09
2022-09-11T14:55:41.121Z,100414.41
2022-09-11T14:58:07.379Z,100410.13
2022-09-11T15:00:33.931Z,100405.47
2022-09-11T15:03:00.785Z,100404.53
2022-09-11T15:05:27.079Z,100415.19
2022-09-11T15:07:53.408Z,100418.28
2022-09-11T15:10:20.215Z,100417.03
2022-09-11T15:12:47.541Z,100421.34
2022-09-11T15:15:13.807Z,100424.66
2022-09-11T15:17:40.063Z,100417.28
2022-09-11T15:20:08.979Z,100415.44
2022-09-11T15:22:35.283Z,100422.16
2022-09-11T15:25:02.060Z,100425.66
2022-09-11T15:27:28.369Z,100420.06
2022-09-11T15:29:54.627Z,100425.63
2022-09-11T15:32:21.191Z,100426.47
2022-09-11T15:34:47.681Z,100425.25
2022-09-11T15:37:13.936Z,100423.38
2022-09-11T15:39:40.361Z,100419.84
2022-09-11T15:42:07.478Z,100420.38
2022-09-11T15:44:33.773Z,100407.41
2022-09-11T15:47:00.071Z,100415.63
2022-09-11T15:49:28.401Z,100413.78
2022-09-11T15:51:54.709Z,100420.25
2022-09-11T15:54:23.187Z,100419.75
2022-09-11T15:56:49.451Z,100424.63
2022-09-11T15:59:15.729Z,100422.03
2022-09-11T16:01:42.078Z,100419.22
2022-09-11T16:04:08.552Z,100421.28
2022-09-11T16:06:34.807Z,100428.59
2022-09-11T16:09:02.001Z,100424.72
2022-09-11T16:11:29.090Z,100429.91
2022-09-11T16:13:55.315Z,100427.75
2022-09-11T16:16:21.589Z,100422.31
2022-09-11T16:18:48.049Z,100425.78
2022-09-11T16:21:14.299Z,100422.84
2022-09-11T16:23:40.720Z,100420.25
2022-09-11T16:26:07.077Z,100414.47
2022-09-11T16:28:33.519Z,100419.59
2022-09-11T16:30:59.833Z,100408.63
2022-09-11T16:33:26.115Z,100408.19
2022-09-11T16:35:52.748Z,100413.25
2022-09-11T16:38:19.009Z,100421.69
2022-09-11T16:40:45.271Z,100415.38
2022-09-11T16:43:11.873Z,100410.78
2022-09-11T16:45:39.704Z,100423.69
2022-09-11T16:48:06.159Z,100420.50
2022-09-11T16:50:32.900Z,100418.03
2022-09-11T16:52:59.507Z,100412.22
2022-09-11T16:55:25.920Z,100418.28
2022-09-11T16:57:52.176Z,100420.47
2022-09-11T17:00:18.437Z,100416.44
2022-09-11T17:02:45.324Z,100413.00
2022-09-11T17:05:12.147Z,100415.34
2022-09-11T17:07:38.599Z,100412.94
2022-09-11T17:10:04.884Z,100410.16
2022-09-11T17:12:31.160Z,100407.97
2022-09-11T17:14:57.482Z,100407.81
2022-09-11T17:17:23.789Z,100416.19
2022-09-11T17:19:50.998Z,100412.75
2022-09-11T17:22:17.264Z,100416.78
2022-09-11T17:24:43.525Z,100412.38
2022-09-11T17:27:09.829Z,100414.63
2022-09-11T17:29:36.131Z,100416.41
2022-09-11T17:32:26.091Z,100426.22
2022-09-11T17:34:48.662Z,100432.31
2022-09-11T17:37:14.921Z,100427.44
2022-09-11T17:39:44.220Z,100429.16
2022-09-11T17:42:13.286Z,100431.56
2022-09-11T17:44:41.213Z,100437.03
2022-09-11T17:47:07.489Z,100435.94
2022-09-11T17:49:33.765Z,100435.91
2022-09-11T17:52:00.011Z,100434.47
2022-09-11T17:54:27.754Z,100435.00
2022-09-11T17:56:54.309Z,100432.22
2022-09-11T17:59:20.589Z,100435.91
2022-09-11T18:01:46.883Z,100434.38
2022-09-11T18:04:13.441Z,100441.91
2022-09-11T18:06:39.812Z,100443.56
2022-09-11T18:09:11.789Z,100447.34
2022-09-11T18:11:38.050Z,100442.44
2022-09-11T18:14:04.498Z,100454.00
2022-09-11T18:16:30.780Z,100455.53
2022-09-11T18:18:57.083Z,100448.38
2022-09-11T18:21:23.330Z,100460.34
2022-09-11T18:23:49.854Z,100462.91
2022-09-11T18:26:16.176Z,100458.34
2022-09-11T18:28:42.460Z,100458.28
2022-09-11T18:31:09.830Z,100453.84
2022-09-11T18:33:36.210Z,100455.09
2022-09-11T18:36:03.458Z,100453.66
2022-09-11T18:38:32.947Z,100452.75
2022-09-11T18:41:00.663Z,100470.13
2022-09-11T18:43:26.922Z,100485.34
2022-09-11T18:45:53.194Z,100495.00
2022-09-11T18:48:19.469Z,100486.25
2022-09-11T18:50:46.168Z,100492.72
2022-09-11T18:53:12.657Z,100492.44
2022-09-11T18:55:38.938Z,100494.38
2022-09-11T18:58:05.655Z,100490.63
2022-09-11T19:00:31.998Z,100501.94
2022-09-11T19:02:59.699Z,100490.78
2022-09-11T19:05:26.344Z,100493.19
2022-09-11T19:07:52.617Z,100495.59
2022-09-11T19:10:18.887Z,100496.59
2022-09-11T19:12:45.201Z,100501.03
2022-09-11T19:15:11.489Z,100504.44
2022-09-11T19:17:38.303Z,100516.59
2022-09-11T19:20:06.167Z,100505.59
2022-09-11T19:22:32.423Z,100504.59
2022-09-11T19:24:59.801Z,100507.44
2022-09-11T19:27:26.173Z,100519.84
2022-09-11T19:29:53.254Z,100516.81
2022-09-11T19:32:19.443Z,100523.09
2022-09-11T19:34:47.584Z,100522.13
2022-09-11T19:37:15.134Z,100514.13
2022-09-11T19:39:41.470Z,100515.31
2022-09-11T19:42:09.133Z,100512.19
2022-09-11T19:44:35.416Z,100515.03
2022-09-11T19:47:01.704Z,100520.00
2022-09-11T19:49:28.791Z,100515.16
2022-09-11T19:51:55.169Z,100514.47
2022-09-11T19:54:22.916Z,100510.16
2022-09-11T19:56:50.132Z,100514.31
2022-09-11T19:59:16.402Z,100509.44
2022-09-11T20:01:42.771Z,100515.72
2022-09-11T20:04:10.098Z,100522.97
2022-09-11T20:06:36.360Z,100525.69
2022-09-11T20:09:27.285Z,100519.84
2022-09-11T20:11:49.030Z,100520.88
2022-09-11T20:14:15.302Z,100523.59
2022-09-11T20:16:41.617Z,100517.44
2022-09-11T20:19:09.313Z,100533.84
2022-09-11T20:21:36.066Z,100523.31
2022-09-11T20:24:02.431Z,100525.84
2022-09-11T20:26:28.708Z,100526.16
2022-09-11T20:28:54.989Z,100523.56
2022-09-11T20:31:21.368Z,100527.16
2022-09-11T20:33:49.297Z,100523.03
2022-09-11T20:36:15.577Z,100513.91
2022-09-11T20:38:41.832Z,100522.88
2022-09-11T20:41:08.123Z,100516.19
2022-09-11T20:43:34.465Z,100516.47
2022-09-11T21:00:31.963Z,100513.19
2022-09-11T21:02:58.271Z,100509.63
2022-09-11T21:05:24.532Z,100510.75
2022-09-11T21:07:50.818Z,100514.00
2022-09-11T21:10:17.098Z,100501.06
2022-09-11T21:12:43.375Z,100519.59
2022-09-11T21:15:10.276Z,100508.34
2022-09-11T21:17:36.551Z,100515.75
2022-09-11T21:20:02.829Z,100509.63
2022-09-11T21:22:29.087Z,100507.75
2022-09-11T21:24:55.357Z,100510.47
2022-09-11T21:27:21.634Z,100502.75
2022-09-11T21:29:47.902Z,100520.44
2022-09-11T21:32:14.172Z,100507.47
2022-09-11T21:34:40.442Z,100509.56
2022-09-11T21:37:06.804Z,100514.09
2022-09-11T21:39:33.064Z,100512.97
2022-09-11T21:41:59.327Z,100518.97
2022-09-11T21:44:25.593Z,100518.97
2022-09-11T21:46:51.938Z,100514.66
2022-09-11T21:49:18.234Z,100519.09
2022-09-11T21:51:44.531Z,100517.97
2022-09-11T21:54:10.797Z,100515.38
2022-09-11T21:56:37.069Z,100503.84
2022-09-11T21:59:03.346Z,100505.56
2022-09-11T22:01:29.753Z,100514.13
2022-09-11T22:03:56.106Z,100503.00
2022-09-11T22:06:24.465Z,100506.91
2022-09-11T22:08:51.021Z,100506.81
2022-09-11T22:11:17.298Z,100496.97
2022-09-11T22:13:43.638Z,100497.97
2022-09-11T22:16:10.067Z,100502.13
2022-09-11T22:18:36.375Z,100511.75
2022-09-11T22:21:02.660Z,100505.91
2022-09-11T22:23:28.956Z,100511.09
2022-09-11T22:25:55.231Z,100510.66
2022-09-11T22:28:21.484Z,100509.53
2022-09-11T22:30:47.843Z,100510.25
2022-09-11T22:33:14.251Z,100501.00
2022-09-11T22:35:40.512Z,100508.41
2022-09-11T22:38:06.772Z,100499.56
2022-09-11T22:40:33.087Z,100509.94
2022-09-11T22:43:00.065Z,100505.25
2022-09-11T22:45:26.513Z,100499.84
2022-09-11T22:47:52.802Z,100497.84
2022-09-11T22:50:19.265Z,100502.38
2022-09-11T22:52:45.537Z,100501.09
2022-09-11T22:55:11.833Z,100508.69
2022-09-11T22:57:38.160Z,100506.97
2022-09-11T23:00:04.510Z,100504.13
2022-09-11T23:02:30.771Z,100502.13
2022-09-11T23:05:15.813Z,100502.97
2022-09-11T23:07:42.142Z,100504.97
2022-09-11T23:10:09.669Z,100502.97
2022-09-11T23:12:37.288Z,100505.28
2022-09-11T23:15:04.385Z,100509.41
2022-09-11T23:17:30.576Z,100513.25
2022-09-11T23:19:56.845Z,100509.78
2022-09-11T23:22:23.099Z,100513.38
2022-09-11T23:24:49.352Z,100507.84
2022-09-11T23:27:15.605Z,100507.97
2022-09-11T23:29:41.870Z,100508.63
2022-09-11T23:32:08.128Z,100518.06
2022-09-11T23:34:34.386Z,100508.53
2022-09-11T23:37:00.647Z,100517.38
2022-09-11T23:39:26.944Z,100513.94
2022-09-11T23:41:53.212Z,100509.38
2022-09-11T23:44:19.484Z,100513.53
2022-09-11T23:46:45.760Z,100513.25
2022-09-11T23:49:12.058Z,100505.84
2022-09-11T23:51:38.360Z,100509.25
2022-09-11T23:54:04.627Z,100509.53
2022-09-11T23:56:30.893Z,100504.97
2022-09-11T23:58:57.289Z,100496.72
